Time;durP1;ratioP1;P1;durP2;ratioP2;P2;SDS_P1;SDS_P2;PMS_P1;PMS_P2;Temp;Humidity;BMP_temperature;BMP_pressure;BME280_temperature;BME280_humidity;BME280_pressure;Samples;Min_cycle;Max_cycle;Signal;HPM_P1;HPM_P2
2023/08/17 00:00:38;;;;;;;0.00;0.00;;;;;;;;;;5057334;28;20250;-83
2023/08/17 00:03:04;;;;;;;0.00;0.00;;;;;;;;;;5077157;28;20204;-84
2023/08/17 00:05:33;;;;;;;0.10;0.10;;;;;;;;;;5057549;28;20439;-81
2023/08/17 00:08:00;;;;;;;0.03;0.03;;;;;;;;;;5076818;28;20567;-83
2023/08/17 00:10:27;;;;;;;0.00;0.00;;;;;;;;;;5056907;28;20544;-82
2023/08/17 00:12:53;;;;;;;0.00;0.00;;;;;;;;;;5077543;28;20209;-83
2023/08/17 00:15:20;;;;;;;0.00;0.00;;;;;;;;;;5055901;28;20204;-83
2023/08/17 00:17:46;;;;;;;0.10;0.10;;;;;;;;;;5078376;28;20462;-82
2023/08/17 00:20:13;;;;;;;0.00;0.00;;;;;;;;;;5054879;28;20271;-82
2023/08/17 00:22:41;;;;;;;0.00;0.00;;;;;;;;;;5079065;28;20449;-83
2023/08/17 00:25:08;;;;;;;0.00;0.00;;;;;;;;;;5061257;28;20231;-81
2023/08/17 00:27:34;;;;;;;0.00;0.00;;;;;;;;;;5079291;28;20227;-81
2023/08/17 00:30:01;;;;;;;0.00;0.00;;;;;;;;;;5064228;28;20232;-82
2023/08/17 00:32:27;;;;;;;0.10;0.10;;;;;;;;;;5069303;28;20239;-82
2023/08/17 00:34:54;;;;;;;0.00;0.00;;;;;;;;;;5064272;28;20203;-81
2023/08/17 00:37:20;;;;;;;0.00;0.00;;;;;;;;;;5069206;28;20246;-82
2023/08/17 00:39:48;;;;;;;0.00;0.00;;;;;;;;;;5064266;28;20242;-82
2023/08/17 00:42:14;;;;;;;0.00;0.00;;;;;;;;;;5069140;28;20617;-81
2023/08/17 00:44:40;;;;;;;0.00;0.00;;;;;;;;;;5063854;28;20208;-80
2023/08/17 00:47:07;;;;;;;0.10;0.10;;;;;;;;;;5068856;28;20239;-81
2023/08/17 00:49:34;;;;;;;0.08;0.08;;;;;;;;;;5063843;28;20412;-82
2023/08/17 00:52:01;;;;;;;0.00;0.00;;;;;;;;;;5067886;28;20326;-81
2023/08/17 00:54:28;;;;;;;0.00;0.00;;;;;;;;;;5064448;28;20464;-82
2023/08/17 00:56:55;;;;;;;0.10;0.10;;;;;;;;;;5067275;28;20259;-82
2023/08/17 00:59:22;;;;;;;0.00;0.00;;;;;;;;;;5065394;28;20240;-82
2023/08/17 01:01:49;;;;;;;0.10;0.10;;;;;;;;;;5066509;28;20257;-83
2023/08/17 01:04:15;;;;;;;0.00;0.00;;;;;;;;;;5066183;28;20196;-82
2023/08/17 01:06:41;;;;;;;0.00;0.00;;;;;;;;;;5065453;28;20239;-83
2023/08/17 01:09:09;;;;;;;0.00;0.00;;;;;;;;;;5066906;28;20270;-83
2023/08/17 01:11:37;;;;;;;0.00;0.00;;;;;;;;;;5064459;28;20284;-82
2023/08/17 01:14:06;;;;;;;0.08;0.08;;;;;;;;;;5067176;28;20398;-82
2023/08/17 01:16:34;;;;;;;0.00;0.00;;;;;;;;;;5064216;28;20242;-82
2023/08/17 01:19:01;;;;;;;0.10;0.10;;;;;;;;;;5067787;28;20274;-82
2023/08/17 01:21:31;;;;;;;0.10;0.10;;;;;;;;;;5063376;28;20258;-82
2023/08/17 01:24:00;;;;;;;0.10;0.10;;;;;;;;;;5068127;28;20228;-82
2023/08/17 01:26:26;;;;;;;0.00;0.00;;;;;;;;;;5063336;28;20261;-82
2023/08/17 01:28:53;;;;;;;0.00;0.00;;;;;;;;;;5068811;28;20543;-83
2023/08/17 01:31:22;;;;;;;0.10;0.10;;;;;;;;;;5062405;28;20491;-83
2023/08/17 01:33:51;;;;;;;0.00;0.00;;;;;;;;;;5069311;28;20211;-82
2023/08/17 01:36:20;;;;;;;0.10;0.10;;;;;;;;;;5062053;28;20254;-82
2023/08/17 01:38:47;;;;;;;0.00;0.00;;;;;;;;;;5069434;28;20204;-82
2023/08/17 01:41:15;;;;;;;0.00;0.00;;;;;;;;;;5061551;28;20446;-82
2023/08/17 01:43:45;;;;;;;0.10;0.10;;;;;;;;;;5070188;28;20208;-82
2023/08/17 01:46:13;;;;;;;0.03;0.03;;;;;;;;;;5061305;28;20243;-81
2023/08/17 01:48:40;;;;;;;0.00;0.00;;;;;;;;;;5070160;28;20212;-82
2023/08/17 01:51:06;;;;;;;0.00;0.00;;;;;;;;;;5060380;28;20542;-82
2023/08/17 01:53:32;;;;;;;0.00;0.00;;;;;;;;;;5071020;28;20287;-82
2023/08/17 01:55:59;;;;;;;0.00;0.00;;;;;;;;;;5059331;28;20298;-82
2023/08/17 01:58:26;;;;;;;0.00;0.00;;;;;;;;;;5072154;28;20239;-83
2023/08/17 02:00:53;;;;;;;0.00;0.00;;;;;;;;;;5058795;28;20324;-83
2023/08/17 02:03:19;;;;;;;0.00;0.00;;;;;;;;;;5072660;28;20250;-81
2023/08/17 02:05:45;;;;;;;0.10;0.10;;;;;;;;;;5057668;28;20307;-82
2023/08/17 02:08:12;;;;;;;0.10;0.10;;;;;;;;;;5073723;28;20426;-81
2023/08/17 02:10:38;;;;;;;0.05;0.05;;;;;;;;;;5056763;28;20499;-82
2023/08/17 02:13:05;;;;;;;0.00;0.00;;;;;;;;;;5074660;28;20239;-81
2023/08/17 02:15:32;;;;;;;0.10;0.10;;;;;;;;;;5055588;28;20247;-80
2023/08/17 02:18:01;;;;;;;0.10;0.10;;;;;;;;;;5075367;28;20515;-81
2023/08/17 02:20:27;;;;;;;0.32;0.32;;;;;;;;;;5055328;28;20489;-82
2023/08/17 02:22:53;;;;;;;0.00;0.00;;;;;;;;;;5076019;28;20412;-82
2023/08/17 02:25:20;;;;;;;0.08;0.08;;;;;;;;;;5053973;28;20243;-81
2023/08/17 02:27:46;;;;;;;0.10;0.10;;;;;;;;;;5079532;28;20208;-81
2023/08/17 02:30:13;;;;;;;0.10;0.10;;;;;;;;;;5056988;28;20241;-81
2023/08/17 02:32:41;;;;;;;0.00;0.00;;;;;;;;;;5080856;28;20264;-83
2023/08/17 02:35:08;;;;;;;0.00;0.00;;;;;;;;;;5060988;28;20210;-82
2023/08/17 02:37:34;;;;;;;0.08;0.08;;;;;;;;;;5081737;28;20228;-82
2023/08/17 02:40:04;;;;;;;0.10;0.10;;;;;;;;;;5066104;28;20239;-82
2023/08/17 02:42:30;;;;;;;0.08;0.08;;;;;;;;;;5071389;28;20236;-82
2023/08/17 02:44:56;;;;;;;0.10;0.10;;;;;;;;;;5066063;28;20242;-81
2023/08/17 02:47:23;;;;;;;0.10;0.10;;;;;;;;;;5071281;28;20260;-82
2023/08/17 02:49:51;;;;;;;0.00;0.00;;;;;;;;;;5065817;28;20237;-81
2023/08/17 02:52:17;;;;;;;0.00;0.00;;;;;;;;;;5071093;28;20253;-82
2023/08/17 02:54:43;;;;;;;0.10;0.10;;;;;;;;;;5065779;28;20241;-82
2023/08/17 02:57:10;;;;;;;0.03;0.03;;;;;;;;;;5071148;28;20312;-82
2023/08/17 02:59:36;;;;;;;0.08;0.08;;;;;;;;;;5066022;28;20398;-81
2023/08/17 03:02:02;;;;;;;0.10;0.10;;;;;;;;;;5070311;28;20244;-82
2023/08/17 03:04:29;;;;;;;0.00;0.00;;;;;;;;;;5066474;28;20214;-82
2023/08/17 03:06:56;;;;;;;0.00;0.00;;;;;;;;;;5069334;28;20342;-82
2023/08/17 03:09:23;;;;;;;0.10;0.10;;;;;;;;;;5067387;28;20206;-82
2023/08/17 03:11:49;;;;;;;0.00;0.00;;;;;;;;;;5068482;28;20260;-83
2023/08/17 03:14:15;;;;;;;0.10;0.10;;;;;;;;;;5067872;28;20286;-82
2023/08/17 03:16:42;;;;;;;0.10;0.10;;;;;;;;;;5067455;28;20249;-82
2023/08/17 03:19:10;;;;;;;0.00;0.00;;;;;;;;;;5068947;28;20230;-82
2023/08/17 03:21:37;;;;;;;0.10;0.10;;;;;;;;;;5066781;28;20238;-82
2023/08/17 03:24:05;;;;;;;0.10;0.10;;;;;;;;;;5069152;28;20298;-81
2023/08/17 03:26:32;;;;;;;0.10;0.10;;;;;;;;;;5065729;28;20317;-82
2023/08/17 03:28:58;;;;;;;0.10;0.10;;;;;;;;;;5070030;28;20206;-81
2023/08/17 03:31:24;;;;;;;0.10;0.10;;;;;;;;;;5064728;28;20235;-81
2023/08/17 03:33:51;;;;;;;0.10;0.10;;;;;;;;;;5070757;28;20278;-81
2023/08/17 03:36:17;;;;;;;0.00;0.00;;;;;;;;;;5063787;28;20337;-81
2023/08/17 03:38:43;;;;;;;0.10;0.10;;;;;;;;;;5071153;28;20207;-80
2023/08/17 03:41:11;;;;;;;0.55;0.55;;;;;;;;;;5062838;28;20253;-80
2023/08/17 03:43:37;;;;;;;0.00;0.00;;;;;;;;;;5072338;28;20242;-81
2023/08/17 03:46:04;;;;;;;0.00;0.00;;;;;;;;;;5061778;28;20307;-78
2023/08/17 03:48:31;;;;;;;0.10;0.10;;;;;;;;;;5072826;28;20403;-78
2023/08/17 03:50:57;;;;;;;0.10;0.10;;;;;;;;;;5060663;28;20252;-81
2023/08/17 03:53:24;;;;;;;0.10;0.10;;;;;;;;;;5073866;28;20230;-79
2023/08/17 03:55:50;;;;;;;0.05;0.05;;;;;;;;;;5058890;28;20267;-80
2023/08/17 03:58:19;;;;;;;0.10;0.10;;;;;;;;;;5075279;28;20206;-80
2023/08/17 04:00:49;;;;;;;0.20;0.20;;;;;;;;;;5059196;28;20506;-79
2023/08/17 04:03:16;;;;;;;0.08;0.08;;;;;;;;;;5074344;28;20208;-80
2023/08/17 04:05:42;;;;;;;0.00;0.00;;;;;;;;;;5058172;28;20245;-80
2023/08/17 04:08:09;;;;;;;0.10;0.10;;;;;;;;;;5075821;28;20278;-81
2023/08/17 04:10:35;;;;;;;0.10;0.10;;;;;;;;;;5057684;28;20244;-81
2023/08/17 04:13:01;;;;;;;0.08;0.08;;;;;;;;;;5076265;28;20479;-79
2023/08/17 04:15:29;;;;;;;0.30;0.30;;;;;;;;;;5056982;28;20464;-79
2023/08/17 04:17:56;;;;;;;0.10;0.10;;;;;;;;;;5077217;28;20210;-77
2023/08/17 04:20:22;;;;;;;0.20;0.20;;;;;;;;;;5056077;28;20276;-77
2023/08/17 04:22:49;;;;;;;0.10;0.10;;;;;;;;;;5077803;28;20224;-77
2023/08/17 04:25:16;;;;;;;0.10;0.10;;;;;;;;;;5054709;28;20233;-78
2023/08/17 04:27:42;;;;;;;0.10;0.10;;;;;;;;;;5078496;28;20205;-78
2023/08/17 04:30:09;;;;;;;0.03;0.03;;;;;;;;;;5053886;28;20238;-76
2023/08/17 04:32:37;;;;;;;0.00;0.00;;;;;;;;;;5079148;28;20225;-79
2023/08/17 04:35:04;;;;;;;0.10;0.10;;;;;;;;;;5064192;28;20237;-78
2023/08/17 04:37:31;;;;;;;0.10;0.10;;;;;;;;;;5069330;28;20304;-79
2023/08/17 04:39:57;;;;;;;0.10;0.10;;;;;;;;;;5063786;28;20302;-78
2023/08/17 04:42:24;;;;;;;0.10;0.10;;;;;;;;;;5069091;28;20322;-79
2023/08/17 04:44:51;;;;;;;0.00;0.00;;;;;;;;;;5063755;28;20282;-79
2023/08/17 04:47:17;;;;;;;0.00;0.00;;;;;;;;;;5068953;28;20313;-78
2023/08/17 04:49:45;;;;;;;0.00;0.00;;;;;;;;;;5063046;28;20212;-78
2023/08/17 04:52:11;;;;;;;0.05;0.05;;;;;;;;;;5068833;28;20305;-79
2023/08/17 04:54:37;;;;;;;0.10;0.10;;;;;;;;;;5063499;28;20243;-79
2023/08/17 04:57:05;;;;;;;0.00;0.00;;;;;;;;;;5068339;28;20262;-79
2023/08/17 04:59:31;;;;;;;0.05;0.05;;;;;;;;;;5064162;28;20205;-78
2023/08/17 05:01:58;;;;;;;0.10;0.10;;;;;;;;;;5067529;28;20237;-78
2023/08/17 05:04:24;;;;;;;0.05;0.05;;;;;;;;;;5064873;28;20237;-79
2023/08/17 05:06:52;;;;;;;0.10;0.10;;;;;;;;;;5066658;28;20252;-78
2023/08/17 05:09:18;;;;;;;0.10;0.10;;;;;;;;;;5065334;28;20243;-80
2023/08/17 05:11:45;;;;;;;0.10;0.10;;;;;;;;;;5065724;28;20321;-79
2023/08/17 05:14:11;;;;;;;0.00;0.00;;;;;;;;;;5066406;28;20330;-79
2023/08/17 05:16:38;;;;;;;0.10;0.10;;;;;;;;;;5064865;28;20261;-79
2023/08/17 05:19:04;;;;;;;0.03;0.03;;;;;;;;;;5067092;28;20237;-79
2023/08/17 05:21:30;;;;;;;0.10;0.10;;;;;;;;;;5063940;28;20242;-79
2023/08/17 05:23:58;;;;;;;0.03;0.03;;;;;;;;;;5068168;28;20262;-79
2023/08/17 05:26:25;;;;;;;0.00;0.00;;;;;;;;;;5062931;28;20278;-79
2023/08/17 05:28:51;;;;;;;0.10;0.10;;;;;;;;;;5068936;28;20205;-79
2023/08/17 05:31:17;;;;;;;0.00;0.00;;;;;;;;;;5062097;28;20311;-80
2023/08/17 05:33:44;;;;;;;0.00;0.00;;;;;;;;;;5069513;28;20258;-80
2023/08/17 05:36:10;;;;;;;0.10;0.10;;;;;;;;;;5060948;28;20324;-80
2023/08/17 05:38:37;;;;;;;0.00;0.00;;;;;;;;;;5070750;28;20230;-80
2023/08/17 05:41:04;;;;;;;0.08;0.08;;;;;;;;;;5060131;28;20497;-80
2023/08/17 05:43:31;;;;;;;0.10;0.10;;;;;;;;;;5071611;28;20212;-80
2023/08/17 05:45:57;;;;;;;0.00;0.00;;;;;;;;;;5059104;28;20298;-80
2023/08/17 05:48:24;;;;;;;0.10;0.10;;;;;;;;;;5072188;28;20274;-80
2023/08/17 05:50:50;;;;;;;0.00;0.00;;;;;;;;;;5058484;28;20241;-80
2023/08/17 05:53:17;;;;;;;0.00;0.00;;;;;;;;;;5073042;28;20252;-80
2023/08/17 05:55:43;;;;;;;0.00;0.00;;;;;;;;;;5057583;28;20265;-79
2023/08/17 05:58:11;;;;;;;0.05;0.05;;;;;;;;;;5074090;28;20244;-80
2023/08/17 06:00:37;;;;;;;0.10;0.10;;;;;;;;;;5057175;28;20241;-80
2023/08/17 06:03:04;;;;;;;0.10;0.10;;;;;;;;;;5079125;28;20201;-80
2023/08/17 06:05:30;;;;;;;1.05;1.05;;;;;;;;;;5059608;28;20474;-80
2023/08/17 06:07:56;;;;;;;0.10;0.10;;;;;;;;;;5079494;28;20207;-79
2023/08/17 06:10:24;;;;;;;0.10;0.10;;;;;;;;;;5058395;28;20239;-80
2023/08/17 06:12:51;;;;;;;0.10;0.10;;;;;;;;;;5079821;28;20261;-80
2023/08/17 06:15:19;;;;;;;0.05;0.05;;;;;;;;;;5057798;28;20243;-80
2023/08/17 06:17:45;;;;;;;0.20;0.20;;;;;;;;;;5080686;28;20210;-79
2023/08/17 06:20:13;;;;;;;0.00;0.00;;;;;;;;;;5056650;28;20214;-80
2023/08/17 06:22:39;;;;;;;0.00;0.00;;;;;;;;;;5081283;28;20264;-77
2023/08/17 06:25:07;;;;;;;0.00;0.00;;;;;;;;;;5066578;28;20234;-79
2023/08/17 06:27:34;;;;;;;0.10;0.10;;;;;;;;;;5055124;28;20548;-80
2023/08/17 06:30:01;;;;;;;0.05;0.05;;;;;;;;;;5066572;28;20371;-78
2023/08/17 06:32:28;;;;;;;0.05;0.05;;;;;;;;;;5071686;28;20264;-76
2023/08/17 06:34:55;;;;;;;0.03;0.03;;;;;;;;;;5066459;28;20237;-78
2023/08/17 06:37:21;;;;;;;0.08;0.08;;;;;;;;;;5071418;28;20520;-78
2023/08/17 06:39:47;;;;;;;0.08;0.08;;;;;;;;;;5066385;28;20234;-79
2023/08/17 06:42:14;;;;;;;0.10;0.10;;;;;;;;;;5071409;28;20238;-78
2023/08/17 06:44:40;;;;;;;0.10;0.10;;;;;;;;;;5066334;28;20460;-79
2023/08/17 06:47:06;;;;;;;0.00;0.00;;;;;;;;;;5071079;28;20242;-79
2023/08/17 06:49:35;;;;;;;0.00;0.00;;;;;;;;;;5066299;28;20244;-79
2023/08/17 06:52:01;;;;;;;0.00;0.00;;;;;;;;;;5070172;28;20484;-79
2023/08/17 06:54:28;;;;;;;0.10;0.10;;;;;;;;;;5066668;28;20269;-78
2023/08/17 06:56:54;;;;;;;0.00;0.00;;;;;;;;;;5069432;28;20641;-79
2023/08/17 06:59:20;;;;;;;0.10;0.10;;;;;;;;;;5067520;28;20215;-80
2023/08/17 07:01:47;;;;;;;0.10;0.10;;;;;;;;;;5068104;28;20239;-80
2023/08/17 07:04:13;;;;;;;0.10;0.10;;;;;;;;;;5068640;28;20235;-81
2023/08/17 07:06:41;;;;;;;0.00;0.00;;;;;;;;;;5067430;28;20310;-82
2023/08/17 07:09:08;;;;;;;0.00;0.00;;;;;;;;;;5069192;28;20277;-81
2023/08/17 07:11:34;;;;;;;0.10;0.10;;;;;;;;;;5066400;28;20313;-82
2023/08/17 07:14:00;;;;;;;0.00;0.00;;;;;;;;;;5069418;28;20271;-83
2023/08/17 07:16:27;;;;;;;0.00;0.00;;;;;;;;;;5065611;28;20242;-82
2023/08/17 07:18:53;;;;;;;0.00;0.00;;;;;;;;;;5070824;28;20206;-81
2023/08/17 07:21:19;;;;;;;0.08;0.08;;;;;;;;;;5064445;28;20457;-81
2023/08/17 07:23:48;;;;;;;0.00;0.00;;;;;;;;;;5071533;28;20452;-81
2023/08/17 07:26:14;;;;;;;0.00;0.00;;;;;;;;;;5063699;28;20244;-80
2023/08/17 07:28:40;;;;;;;0.08;0.08;;;;;;;;;;5072252;28;20208;-79
2023/08/17 07:31:07;;;;;;;0.10;0.10;;;;;;;;;;5062523;28;20307;-79
2023/08/17 07:33:33;;;;;;;0.00;0.00;;;;;;;;;;5073127;28;20264;-81
2023/08/17 07:35:59;;;;;;;0.00;0.00;;;;;;;;;;5061660;28;20261;-83
2023/08/17 07:38:26;;;;;;;0.08;0.08;;;;;;;;;;5074046;28;20238;-80
2023/08/17 07:40:53;;;;;;;0.00;0.00;;;;;;;;;;5060681;28;20504;-81
2023/08/17 07:43:20;;;;;;;0.10;0.10;;;;;;;;;;5074702;28;20239;-83
2023/08/17 07:45:46;;;;;;;0.00;0.00;;;;;;;;;;5059719;28;20246;-82
2023/08/17 07:48:12;;;;;;;0.00;0.00;;;;;;;;;;5075408;28;20248;-82
2023/08/17 07:50:39;;;;;;;0.00;0.00;;;;;;;;;;5058644;28;20289;-82
2023/08/17 07:53:05;;;;;;;0.00;0.00;;;;;;;;;;5075990;28;20259;-82
2023/08/17 07:55:32;;;;;;;0.00;0.00;;;;;;;;;;5057867;28;20280;-81
2023/08/17 07:57:59;;;;;;;0.10;0.10;;;;;;;;;;5076985;28;20207;-82
2023/08/17 08:00:26;;;;;;;0.00;0.00;;;;;;;;;;5056673;28;20527;-81
2023/08/17 08:02:52;;;;;;;0.00;0.00;;;;;;;;;;5077595;28;20271;-81
2023/08/17 08:05:18;;;;;;;0.10;0.10;;;;;;;;;;5055547;28;20242;-81
2023/08/17 08:07:45;;;;;;;0.00;0.00;;;;;;;;;;5078577;28;20238;-81
2023/08/17 08:10:11;;;;;;;0.00;0.00;;;;;;;;;;5054580;28;20278;-82
2023/08/17 08:12:37;;;;;;;0.00;0.00;;;;;;;;;;5079323;28;20242;-81
2023/08/17 08:15:06;;;;;;;0.10;0.10;;;;;;;;;;5064627;28;20243;-82
2023/08/17 08:17:32;;;;;;;0.00;0.00;;;;;;;;;;5052834;28;20215;-82
2023/08/17 08:19:59;;;;;;;0.10;0.10;;;;;;;;;;5064226;28;20207;-82
2023/08/17 08:22:25;;;;;;;0.00;0.00;;;;;;;;;;5069330;28;20249;-82
2023/08/17 08:24:52;;;;;;;0.05;0.05;;;;;;;;;;5063201;28;20238;-82
2023/08/17 08:27:18;;;;;;;0.00;0.00;;;;;;;;;;5069388;28;20255;-82
2023/08/17 08:29:44;;;;;;;0.10;0.10;;;;;;;;;;5064343;28;20453;-80
2023/08/17 08:32:12;;;;;;;0.00;0.00;;;;;;;;;;5069310;28;20431;-81
2023/08/17 08:34:39;;;;;;;0.10;0.10;;;;;;;;;;5063873;28;20224;-82
2023/08/17 08:37:05;;;;;;;0.00;0.00;;;;;;;;;;5068901;28;20569;-81
2023/08/17 08:39:31;;;;;;;0.08;0.08;;;;;;;;;;5064182;28;20196;-82
2023/08/17 08:41:59;;;;;;;0.08;0.08;;;;;;;;;;5067953;28;20300;-81
2023/08/17 08:44:25;;;;;;;0.00;0.00;;;;;;;;;;5064789;28;20207;-81
2023/08/17 08:46:54;;;;;;;0.10;0.10;;;;;;;;;;5066944;28;20243;-81
2023/08/17 08:49:23;;;;;;;0.00;0.00;;;;;;;;;;5065756;28;20234;-81
2023/08/17 08:51:51;;;;;;;0.08;0.08;;;;;;;;;;5066535;28;20310;-82
2023/08/17 08:54:21;;;;;;;0.00;0.00;;;;;;;;;;5065584;28;20259;-81
2023/08/17 08:56:49;;;;;;;0.03;0.03;;;;;;;;;;5066284;28;20243;-80
2023/08/17 08:59:15;;;;;;;0.00;0.00;;;;;;;;;;5066271;28;20212;-78
2023/08/17 09:01:42;;;;;;;0.00;0.00;;;;;;;;;;5065471;28;20239;-74
2023/08/17 09:04:08;;;;;;;0.10;0.10;;;;;;;;;;5067104;28;20200;-78
2023/08/17 09:06:37;;;;;;;0.08;0.08;;;;;;;;;;5064508;28;20582;-76
2023/08/17 09:09:03;;;;;;;0.00;0.00;;;;;;;;;;5067740;28;20257;-77
2023/08/17 09:11:30;;;;;;;0.00;0.00;;;;;;;;;;5063908;28;20442;-77
2023/08/17 09:13:56;;;;;;;0.00;0.00;;;;;;;;;;5068356;28;20231;-74
2023/08/17 09:16:22;;;;;;;0.00;0.00;;;;;;;;;;5062778;28;20298;-77
2023/08/17 09:18:49;;;;;;;0.00;0.00;;;;;;;;;;5069249;28;20418;-77
2023/08/17 09:21:22;;;;;;;0.03;0.03;;;;;;;;;;5061777;28;20497;-76
2023/08/17 09:23:53;;;;;;;0.00;0.00;;;;;;;;;;5069093;28;20423;-76
2023/08/17 09:26:20;;;;;;;0.00;0.00;;;;;;;;;;5062335;28;20496;-75
2023/08/17 09:28:46;;;;;;;0.00;0.00;;;;;;;;;;5069683;28;20463;-76
2023/08/17 09:31:13;;;;;;;0.00;0.00;;;;;;;;;;5061315;28;20238;-76
2023/08/17 09:33:40;;;;;;;0.08;0.08;;;;;;;;;;5070468;28;20232;-76
2023/08/17 09:36:06;;;;;;;0.00;0.00;;;;;;;;;;5062527;28;20250;-77
2023/08/17 09:38:32;;;;;;;0.00;0.00;;;;;;;;;;5075529;28;20242;-75
2023/08/17 09:41:00;;;;;;;0.10;0.10;;;;;;;;;;5063381;28;20288;-77
2023/08/17 09:43:28;;;;;;;0.08;0.08;;;;;;;;;;5076127;28;20275;-76
2023/08/17 09:45:55;;;;;;;0.00;0.00;;;;;;;;;;5063090;28;20305;-75
2023/08/17 09:48:21;;;;;;;0.00;0.00;;;;;;;;;;5076727;28;20462;-76
2023/08/17 09:50:48;;;;;;;0.00;0.00;;;;;;;;;;5061767;28;20306;-77
2023/08/17 09:53:15;;;;;;;0.00;0.00;;;;;;;;;;5077353;28;20299;-77
2023/08/17 09:55:42;;;;;;;0.10;0.10;;;;;;;;;;5061208;28;20239;-77
2023/08/17 09:58:10;;;;;;;0.00;0.00;;;;;;;;;;5078078;28;20287;-77
2023/08/17 10:00:36;;;;;;;0.00;0.00;;;;;;;;;;5060484;28;20274;-77
2023/08/17 10:03:04;;;;;;;0.00;0.00;;;;;;;;;;5078581;28;20211;-77
2023/08/17 10:05:33;;;;;;;0.08;0.08;;;;;;;;;;5059553;28;20480;-77
2023/08/17 10:08:00;;;;;;;0.00;0.00;;;;;;;;;;5079251;28;20227;-77
2023/08/17 10:10:27;;;;;;;0.00;0.00;;;;;;;;;;5058769;28;20239;-75
2023/08/17 10:12:56;;;;;;;0.00;0.00;;;;;;;;;;5079822;28;20204;-76
2023/08/17 10:15:26;;;;;;;0.00;0.00;;;;;;;;;;5058065;28;20232;-75
2023/08/17 10:17:56;;;;;;;0.00;0.00;;;;;;;;;;5080050;28;20456;-75
2023/08/17 10:20:23;;;;;;;0.00;0.00;;;;;;;;;;5058223;28;20295;-77
2023/08/17 10:22:56;;;;;;;0.00;0.00;;;;;;;;;;5080176;28;20418;-78
2023/08/17 10:25:23;;;;;;;0.00;0.00;;;;;;;;;;5058225;28;20200;-78
2023/08/17 10:27:51;;;;;;;0.00;0.00;;;;;;;;;;5079942;28;20242;-78
2023/08/17 10:30:18;;;;;;;0.00;0.00;;;;;;;;;;5057459;28;20271;-79
2023/08/17 10:32:46;;;;;;;0.00;0.00;;;;;;;;;;5080565;28;20235;-78
2023/08/17 10:35:13;;;;;;;0.00;0.00;;;;;;;;;;5056605;28;20441;-77
2023/08/17 10:37:40;;;;;;;0.00;0.00;;;;;;;;;;5081031;28;20461;-79
2023/08/17 10:40:07;;;;;;;0.00;0.00;;;;;;;;;;5066303;28;20275;-78
2023/08/17 10:42:35;;;;;;;0.00;0.00;;;;;;;;;;5054543;28;20208;-79
2023/08/17 10:45:03;;;;;;;0.00;0.00;;;;;;;;;;5065915;28;20200;-79
2023/08/17 10:47:31;;;;;;;0.00;0.00;;;;;;;;;;5070161;28;20251;-79
2023/08/17 10:49:59;;;;;;;0.00;0.00;;;;;;;;;;5065808;28;20235;-78
2023/08/17 10:52:30;;;;;;;0.10;0.10;;;;;;;;;;5071116;28;20506;-78
2023/08/17 10:54:56;;;;;;;0.03;0.03;;;;;;;;;;5065661;28;20256;-78
2023/08/17 10:57:29;;;;;;;0.00;0.00;;;;;;;;;;5070977;28;20246;-78
2023/08/17 11:00:07;;;;;;;0.00;0.00;;;;;;;;;;5065661;28;20275;-77
2023/08/17 11:02:34;;;;;;;0.00;0.00;;;;;;;;;;5034479;28;20233;-78
2023/08/17 11:05:03;;;;;;;0.03;0.03;;;;;;;;;;5045948;28;20240;-78
2023/08/17 11:07:39;;;;;;;0.00;0.00;;;;;;;;;;5070589;28;20244;-78
2023/08/17 11:10:11;;;;;;;0.00;0.00;;;;;;;;;;5065770;28;20612;-77
2023/08/17 11:12:37;;;;;;;0.00;0.00;;;;;;;;;;5054217;28;20454;-78
2023/08/17 11:15:04;;;;;;;0.00;0.00;;;;;;;;;;5065330;28;20291;-78
2023/08/17 11:17:30;;;;;;;0.00;0.00;;;;;;;;;;5070762;28;20247;-78
2023/08/17 11:19:57;;;;;;;0.00;0.00;;;;;;;;;;5065601;28;20242;-78
2023/08/17 11:22:25;;;;;;;0.00;0.00;;;;;;;;;;5070623;28;20511;-79
2023/08/17 11:24:52;;;;;;;0.00;0.00;;;;;;;;;;5065535;28;20399;-79
2023/08/17 11:27:19;;;;;;;0.00;0.00;;;;;;;;;;5070483;28;20251;-78
2023/08/17 11:29:45;;;;;;;0.00;0.00;;;;;;;;;;5065471;28;20231;-81
2023/08/17 11:32:12;;;;;;;0.00;0.00;;;;;;;;;;5071281;28;20240;-86
2023/08/17 11:34:38;;;;;;;0.00;0.00;;;;;;;;;;5065493;28;20227;-84
2023/08/17 11:37:05;;;;;;;0.00;0.00;;;;;;;;;;5069824;28;20251;-83
2023/08/17 11:39:35;;;;;;;0.00;0.00;;;;;;;;;;5065735;28;20244;-84
2023/08/17 11:42:01;;;;;;;0.10;0.10;;;;;;;;;;5069312;28;20357;-84
2023/08/17 11:44:28;;;;;;;0.00;0.00;;;;;;;;;;5066178;28;20225;-83
2023/08/17 11:46:54;;;;;;;0.00;0.00;;;;;;;;;;5068763;28;20507;-83
2023/08/17 11:49:22;;;;;;;0.00;0.00;;;;;;;;;;5066985;28;20404;-84
2023/08/17 11:51:48;;;;;;;0.00;0.00;;;;;;;;;;5067802;28;20453;-82
2023/08/17 11:54:15;;;;;;;0.00;0.00;;;;;;;;;;5067163;28;20289;-82
2023/08/17 11:56:42;;;;;;;0.00;0.00;;;;;;;;;;5066809;28;20254;-83
2023/08/17 11:59:09;;;;;;;0.00;0.00;;;;;;;;;;5067885;28;20444;-83
2023/08/17 12:01:36;;;;;;;0.00;0.00;;;;;;;;;;5065519;28;20318;-83
2023/08/17 12:04:05;;;;;;;0.00;0.00;;;;;;;;;;5069191;28;20203;-83
2023/08/17 12:06:31;;;;;;;0.00;0.00;;;;;;;;;;5065176;28;20458;-82
2023/08/17 12:08:57;;;;;;;0.00;0.00;;;;;;;;;;5069181;28;20511;-82
2023/08/17 12:11:24;;;;;;;0.00;0.00;;;;;;;;;;5064025;28;20245;-81
2023/08/17 12:13:53;;;;;;;0.00;0.00;;;;;;;;;;5069970;28;20208;-82
2023/08/17 12:16:19;;;;;;;0.00;0.00;;;;;;;;;;5063269;28;20284;-82
2023/08/17 12:18:46;;;;;;;0.00;0.00;;;;;;;;;;5070576;28;20216;-81
2023/08/17 12:21:12;;;;;;;0.00;0.00;;;;;;;;;;5062311;28;20239;-81
2023/08/17 12:23:39;;;;;;;0.00;0.00;;;;;;;;;;5071273;28;20235;-81
2023/08/17 12:26:06;;;;;;;0.00;0.00;;;;;;;;;;5061517;28;20254;-80
2023/08/17 12:28:33;;;;;;;0.00;0.00;;;;;;;;;;5072075;28;20226;-81
2023/08/17 12:31:01;;;;;;;0.00;0.00;;;;;;;;;;5060623;28;20246;-82
2023/08/17 12:33:28;;;;;;;0.00;0.00;;;;;;;;;;5072677;28;20212;-81
2023/08/17 12:35:54;;;;;;;0.00;0.00;;;;;;;;;;5059465;28;20318;-79
2023/08/17 12:38:21;;;;;;;0.00;0.00;;;;;;;;;;5073418;28;20240;-82
2023/08/17 12:40:47;;;;;;;0.00;0.00;;;;;;;;;;5058680;28;20310;-82
2023/08/17 12:43:13;;;;;;;0.00;0.00;;;;;;;;;;5074269;28;20196;-81
2023/08/17 12:45:40;;;;;;;0.00;0.00;;;;;;;;;;5057878;28;20246;-83
2023/08/17 12:48:08;;;;;;;0.00;0.00;;;;;;;;;;5075006;28;20235;-83
2023/08/17 12:50:34;;;;;;;0.00;0.00;;;;;;;;;;5057052;28;20494;-82
2023/08/17 12:53:00;;;;;;;0.00;0.00;;;;;;;;;;5075905;28;20396;-82
2023/08/17 12:55:27;;;;;;;0.00;0.00;;;;;;;;;;5055693;28;20230;-82
2023/08/17 12:57:53;;;;;;;0.00;0.00;;;;;;;;;;5076700;28;20395;-82
2023/08/17 13:00:19;;;;;;;0.00;0.00;;;;;;;;;;5054837;28;20216;-83
2023/08/17 13:02:49;;;;;;;0.00;0.00;;;;;;;;;;5077733;28;20226;-83
2023/08/17 13:05:16;;;;;;;0.15;0.15;;;;;;;;;;5054121;28;20208;-83
2023/08/17 13:07:43;;;;;;;0.00;0.00;;;;;;;;;;5078177;28;20261;-82
2023/08/17 13:10:09;;;;;;;0.00;0.00;;;;;;;;;;5054753;28;20204;-82
2023/08/17 13:12:36;;;;;;;0.00;0.00;;;;;;;;;;5078995;28;20251;-83
2023/08/17 13:15:02;;;;;;;0.00;0.00;;;;;;;;;;5063650;28;20304;-83
2023/08/17 13:17:29;;;;;;;0.00;0.00;;;;;;;;;;5068725;28;20243;-83
2023/08/17 13:19:55;;;;;;;0.00;0.00;;;;;;;;;;5063285;28;20263;-82
2023/08/17 13:22:23;;;;;;;0.00;0.00;;;;;;;;;;5068823;28;20307;-84
2023/08/17 13:24:49;;;;;;;0.00;0.00;;;;;;;;;;5063642;28;20430;-83
2023/08/17 13:27:15;;;;;;;0.00;0.00;;;;;;;;;;5068716;28;20243;-83
2023/08/17 13:29:42;;;;;;;0.00;0.00;;;;;;;;;;5063560;28;20242;-83
2023/08/17 13:32:08;;;;;;;0.10;0.10;;;;;;;;;;5068681;28;20254;-84
2023/08/17 13:34:35;;;;;;;0.00;0.00;;;;;;;;;;5063593;28;20262;-80
2023/08/17 13:37:02;;;;;;;0.00;0.00;;;;;;;;;;5067801;28;20239;-83
2023/08/17 13:39:30;;;;;;;0.00;0.00;;;;;;;;;;5064309;28;20211;-86
2023/08/17 13:41:56;;;;;;;0.00;0.00;;;;;;;;;;5067182;28;20247;-85
2023/08/17 13:44:23;;;;;;;0.00;0.00;;;;;;;;;;5064939;28;20271;-84
2023/08/17 13:46:49;;;;;;;0.00;0.00;;;;;;;;;;5066280;28;20302;-83
2023/08/17 13:49:16;;;;;;;0.00;0.00;;;;;;;;;;5065707;28;20238;-84
2023/08/17 13:51:42;;;;;;;0.20;0.20;;;;;;;;;;5065327;28;20330;-84
2023/08/17 13:54:09;;;;;;;0.40;0.40;;;;;;;;;;5066435;28;20223;-84
2023/08/17 13:56:36;;;;;;;0.00;0.00;;;;;;;;;;5064124;28;20239;-85
2023/08/17 13:59:03;;;;;;;0.00;0.00;;;;;;;;;;5067443;28;20512;-85
2023/08/17 14:01:30;;;;;;;0.00;0.00;;;;;;;;;;5063613;28;20249;-85
2023/08/17 14:03:56;;;;;;;0.00;0.00;;;;;;;;;;5068192;28;20295;-83
2023/08/17 14:06:22;;;;;;;0.00;0.00;;;;;;;;;;5062493;28;20262;-84
2023/08/17 14:08:49;;;;;;;0.00;0.00;;;;;;;;;;5068889;28;20196;-84
2023/08/17 14:11:15;;;;;;;0.00;0.00;;;;;;;;;;5061640;28;20513;-84
2023/08/17 14:13:43;;;;;;;0.00;0.00;;;;;;;;;;5069993;28;20449;-84
2023/08/17 14:16:09;;;;;;;0.00;0.00;;;;;;;;;;5060426;28;20303;-84
2023/08/17 14:18:35;;;;;;;0.00;0.00;;;;;;;;;;5070719;28;20251;-84
2023/08/17 14:21:02;;;;;;;0.05;0.05;;;;;;;;;;5059791;28;20240;-85
2023/08/17 14:23:28;;;;;;;0.00;0.00;;;;;;;;;;5075378;28;20259;-85
2023/08/17 14:25:55;;;;;;;0.00;0.00;;;;;;;;;;5062442;28;20262;-82
2023/08/17 14:28:21;;;;;;;0.00;0.00;;;;;;;;;;5076082;28;20436;-85
2023/08/17 14:30:49;;;;;;;0.00;0.00;;;;;;;;;;5061328;28;20246;-84
2023/08/17 14:33:15;;;;;;;0.00;0.00;;;;;;;;;;5076925;28;20208;-83
2023/08/17 14:35:42;;;;;;;0.00;0.00;;;;;;;;;;5060197;28;20239;-83
2023/08/17 14:38:09;;;;;;;0.00;0.00;;;;;;;;;;5077625;28;20204;-84
2023/08/17 14:40:35;;;;;;;0.00;0.00;;;;;;;;;;5059757;28;20235;-84